• Join FlightAware (Why Join?)
  • Login
  • US Flag 
07:32AM EST


 

Airport Tracker/Info


-or-


 

Live Flight TrackerFlight Track Log ✈ C-GFMT ✈ 11-Jul-2013 ✈ CYKZ - CYKZ

Flight Track Log - Related Links

Times and Time Zones

All times are in EDT time to prevent confusion due to time zone crossing. See the C-GFMT flight status page for this flight to view local times or setup timezone preferences in your user account.

Time Position Orientation Groundspeed Altitude Reporting Facility
EDT Latitude Longitude Course Direction KTS MPH feet Rate Location/Type
09:08PM 43.8667 -79.3500 188° South 90 104 1,400  Level Toronto Center
09:09PM 43.8833 -79.4000 295° West 100 115 1,900 540 Climbing Toronto Center
09:10PM 43.9000 -79.4167 324° Northwest 100 115 2,500 540 Climbing Toronto Center
09:11PM 43.9167 -79.4000 36° Northeast 100 115 3,000 240 Climbing Toronto Center
09:12PM 43.8833 -79.3833 160° South 130 150 3,000  Level Toronto Center
09:13PM 43.8622 -79.3700 188° South  Level Estimated
09:13PM 43.8500 -79.3333 133° Southeast 140 161 3,000  Level Toronto Center
09:14PM 43.8167 -79.3167 160° South 130 150 3,000  Level Toronto Center
09:15PM 43.8000 -79.2833 125° Southeast 120 138 3,000  Level Toronto Center
09:16PM 43.7667 -79.2667 160° South 120 138 3,000  Level Toronto Center
09:17PM 43.7333 -79.2667 180° South 120 138 3,000  Level Toronto Center
09:18PM 43.7000 -79.2667 180° South 120 138 3,000  Level Toronto Center
09:19PM 43.6667 -79.2667 180° South 120 138 3,000  Level Toronto Center
09:20PM 43.6333 -79.2833 200° South 120 138 3,000  Level Toronto Center
09:21PM 43.6000 -79.2833 180° South 120 138 3,000  Level Toronto Center
09:22PM 43.5667 -79.3333 227° Southwest 120 138 3,000  Level Toronto Center
09:23PM 43.5500 -79.3500 216° Southwest 120 138 3,000  Level Toronto Center
09:24PM 43.5167 -79.3833 216° Southwest 120 138 3,000  Level Toronto Center
09:25PM 43.4833 -79.4000 200° South 120 138 3,000  Level Toronto Center
09:26PM 43.4667 -79.4333 235° Southwest 120 138 3,000 240 Level Toronto Center
09:27PM 43.4333 -79.4667 216° Southwest 120 138 3,500 480 Climbing Toronto Center
09:28PM 43.4167 -79.5000 235° Southwest 120 138 4,000 300 Climbing Toronto Center
09:29PM 43.3833 -79.5167 200° South 130 150 4,100  Climbing Toronto Center
09:30PM 43.3500 -79.5667 227° Southwest 140 161 4,100 -60 Level Toronto Center
09:31PM 43.3333 -79.6167 245° Southwest 140 161 4,000 -60 Descending Toronto Center
09:32PM 43.3000 -79.6500 216° Southwest 140 161 4,000 60 Level Toronto Center
09:33PM 43.2833 -79.7000 245° Southwest 140 161 4,200 480 Climbing Toronto Center
09:34PM 43.2667 -79.7500 245° Southwest 130 150 5,000 420 Climbing Toronto Center
09:35PM 43.2500 -79.8000 245° Southwest 140 161 5,100  Climbing Toronto Center
09:36PM 43.2333 -79.8333 236° Southwest 140 161 5,000 -120 Descending Toronto Center
09:37PM 43.2167 -79.8833 245° Southwest 140 161 4,900  Descending Toronto Center
09:38PM 43.2000 -79.9333 245° Southwest 140 161 5,000 60 Climbing Toronto Center
09:39PM 43.2000 -79.9833 270° West 140 161 5,100  Climbing Toronto Center
09:40PM 43.1833 -80.0167 236° Southwest 140 161 5,100  Level Toronto Center
09:41PM 43.1667 -80.0833 251° West 150 173 5,100  Level Toronto Center
09:42PM 43.2000 -80.0833 360° North 130 150 5,100  Level Toronto Center
09:43PM 43.2000 -80.0500 90° East 120 138 5,100  Level Toronto Center
09:44PM 43.1833 -80.0000 115° Southeast 120 138 5,100 -60 Level Toronto Center
09:45PM 43.1500 -80.0167 200° South 140 161 5,000  Descending Toronto Center
09:46PM 43.1667 -80.0667 295° West 140 161 5,100  Climbing Toronto Center
09:47PM 43.1833 -80.0833 324° Northwest 130 150 5,000  Descending Toronto Center
09:48PM 43.2000 -80.0500 56° Northeast 120 138 5,100  Climbing Toronto Center
09:49PM 43.1833 -80.0000 115° Southeast 120 138 5,000 -60 Descending Toronto Center
09:50PM 43.1500 -80.0167 200° South 130 150 5,000  Level Toronto Center
09:51PM 43.1833 -80.0667 312° West 140 161 5,000 -60 Level Toronto Center
09:52PM 43.2000 -80.0667 360° North 120 138 4,900  Descending Toronto Center
09:53PM 43.1833 -80.0167 115° Southeast 120 138 5,000  Climbing Toronto Center
09:54PM 43.1667 -79.9833 124° Southeast 120 138 5,000 -120 Level Toronto Center
09:55PM 43.1667 -80.0500 270° West 140 161 4,800 -480 Descending Toronto Center
09:56PM 43.1833 -80.0833 304° West 140 161 4,100 -900 Descending Toronto Center
09:57PM 43.1833 -80.1167 270° West 120 138 3,000 -660 Descending Toronto Center
09:58PM 43.2167 -80.1333 340° North 100 115 2,800  Descending Toronto Center
09:59PM 43.2000 -80.0833 115° Southeast 100 115 3,000  Climbing Toronto Center
10:00PM 43.2000 -80.0500 90° East 100 115 2,900 -540 Descending Toronto Center
10:01PM 43.1833 -80.0167 124° Southeast 100 115 2,000 -600 Descending Toronto Center
10:02PM 43.1833 -79.9833 90° East 100 115 1,700 -540 Descending Toronto Center
10:03PM 43.1667 -79.9500 124° Southeast 90 104 1,000 -180 Descending Toronto Center
10:04PM 43.1667 -79.9000 90° East 110 127 1,400 480 Climbing Toronto Center
10:05PM 43.1500 -79.8667 124° Southeast 110 127 2,000 540 Climbing Toronto Center
10:06PM 43.1667 -79.8333 56° Northeast 110 127 2,500 480 Climbing Toronto Center
10:07PM 43.2000 -79.8167 20° North 120 138 3,000 300 Climbing Toronto Center
10:08PM 43.2333 -79.8333 340° North 120 138 3,100  Climbing Toronto Center
10:09PM 43.2500 -79.8667 304° West 130 150 3,100  Level Toronto Center
10:10PM 43.2833 -79.8833 340° North 130 150 3,200  Climbing Toronto Center
10:11PM 43.3000 -79.9333 295° West 130 150 3,100 -60 Descending Toronto Center
10:12PM 43.2667 -79.9500 200° South 140 161 3,100  Level Toronto Center
10:13PM 43.2333 -79.9833 216° Southwest 140 161 3,100  Level Toronto Center
10:14PM 43.2000 -80.0000 200° South 140 161 3,100 -60 Level Toronto Center
10:15PM 43.1667 -80.0500 228° Southwest 140 161 3,000 -240 Descending Toronto Center
10:16PM 43.1500 -80.0833 236° Southwest 130 150 2,700 -120 Descending Toronto Center
10:17PM 43.1667 -80.1333 295° West 120 138 2,800  Climbing Toronto Center
10:18PM 43.1833 -80.1333 360° North 100 115 2,800  Level Toronto Center
10:19PM 43.2000 -80.1167 36° Northeast 100 115 2,900  Climbing Toronto Center
10:20PM 43.2000 -80.0667 90° East 110 127 2,900 -480 Level Toronto Center
10:21PM 43.1833 -80.0167 115° Southeast 110 127 2,000 -60 Descending Toronto Center
10:22PM 43.1833 -80.0000 90° East 100 115 2,800 840 Climbing Toronto Center
10:23PM 43.2000 -79.9500 65° Northeast 100 115 3,700 600 Climbing Toronto Center
10:24PM 43.2000 -79.9000 90° East 110 127 4,100 240 Climbing Toronto Center
10:25PM 43.2167 -79.8667 56° Northeast 120 138 4,200  Climbing Toronto Center
10:26PM 43.2167 -79.8167 90° East 130 150 4,100 -60 Descending Toronto Center
10:27PM 43.2333 -79.7667 65° Northeast 130 150 4,100 -60 Level Toronto Center
10:28PM 43.2500 -79.7500 36° Northeast 130 150 4,000 -60 Descending Toronto Center
10:29PM 43.2833 -79.7000 48° Northeast 130 150 4,000  Level Toronto Center
10:30PM 43.3167 -79.6500 47° Northeast 130 150 4,000  Level Toronto Center
10:31PM 43.3333 -79.6333 36° Northeast 130 150 4,100  Climbing Toronto Center
10:32PM 43.3667 -79.5833 47° Northeast 130 150 4,100  Level Toronto Center
10:33PM 43.3833 -79.5667 36° Northeast 130 150 4,100 -60 Level Toronto Center
10:34PM 43.4167 -79.5167 47° Northeast 140 161 4,000 -60 Descending Toronto Center
10:35PM 43.4333 -79.4667 65° Northeast 140 161 4,000  Level Toronto Center
10:36PM 43.4667 -79.4500 20° North 130 150 4,000  Level Toronto Center
10:37PM 43.4833 -79.4000 65° Northeast 130 150 4,000  Level Toronto Center
10:38PM 43.5167 -79.3500 47° Northeast 130 150 4,000  Level Toronto Center
10:39PM 43.5333 -79.3333 36° Northeast 130 150 4,000  Level Toronto Center
10:40PM 43.5667 -79.2833 47° Northeast 130 150 4,000  Level Toronto Center
10:41PM 43.6000 -79.2667 20° North 130 150 4,000 -60 Level Toronto Center
10:42PM 43.6167 -79.2167 65° Northeast 130 150 3,900 -60 Descending Toronto Center
10:43PM 43.6500 -79.1667 47° Northeast 140 161 3,900  Level Toronto Center
10:44PM 43.6667 -79.1500 36° Northeast 140 161 3,900 60 Level Toronto Center
10:45PM 43.7000 -79.1667 340° North 130 150 4,100 -600 Climbing Toronto Center
10:46PM 43.7167 -79.2167 295° West 140 161 2,800 -780 Descending Toronto Center
10:47PM 43.7500 -79.2333 340° North 120 138 2,600 -600 Descending Toronto Center
10:48PM 43.7667 -79.2667 305° West 120 138 1,600 -600 Descending Toronto Center
10:49PM 43.8000 -79.2833 340° North 100 115 1,500 -180 Descending Toronto Center
10:50PM 43.8167 -79.3167 305° West 80 92 1,300 -240 Descending Toronto Center
10:51PM 43.8333 -79.3333 324° Northwest 80 92 1,100 -300 Descending Toronto Center
10:52PM 43.8500 -79.3500 324° Northwest 80 92 800 -300 Descending Toronto Center
10:54PM 43.8500 -79.3667 North  Level FlightAware Approximate